Main page
METAR-TAF:

METAR-TAF

Airports :

St. Gallen–Altenrhein Airport

St. Gallen, Switzerland

latitude: 47-29-06N, longitude: 009-33-43E, elevation: 398 m

Current weather observation

The report was made 25 minutes ago, at 11:50 UTC
Wind 5 kt from the East
Temperature 19°C
Humidity 83%
Pressure 1016 hPa
Visibility 10 km or more
Broken clouds at a height of 6000 ft

METAR: LSZR 221150Z 09005KT 9999 BKN060 19/16 Q1016 NOSIG RMK E

Time: 14:15 (12:15 UTC)

Forecast

The report was made 50 minutes ago, at 11:25 UTC
Forecast valid from 22 at 12 UTC to 22 at 21 UTC
Wind 3 kt from variable directions
Visibility 10 km or more
Scattered clouds at a height of 3500 ft
Broken clouds at a height of 6000 ft
Probability 40% :
Temporary
from 22 at 12 UTC to 22 at 21 UTC
Scattered clouds at a height of 4500 ft, Towering cumulus.
rain showers

TAF: LSZR 221125Z 2212/2221 VRB03KT 9999 SCT035 BKN060 PROB40 TEMPO 2212/2221 SHRA SCT045TCU

Weather observations and forecasts of more than 4000 airports (METAR and TAF reports).

The available stations are represented by yellow and red dots on the map.

Hover mouse over dot to see the name of the station.

Then click to see weather observations and forecasts.

To change the map : click on the green buttons with a black cross to zoom in, on the green button with a dash to zoom out, or on the green arrows for adjacent maps.


METAR-TAF: